sensor_id;sensor_type;location;lat;lon;timestamp;P1;durP1;ratioP1;P2;durP2;ratioP2
62353;SDS011;48391;49.184;2.418;2023-02-15T00:01:51;32.05;;;16.45;;
62353;SDS011;48391;49.184;2.418;2023-02-15T00:04:18;26.75;;;15.93;;
62353;SDS011;48391;49.184;2.418;2023-02-15T00:06:44;30.35;;;15.38;;
62353;SDS011;48391;49.184;2.418;2023-02-15T00:09:11;28.38;;;15.85;;
62353;SDS011;48391;49.184;2.418;2023-02-15T00:11:37;27.02;;;15.32;;
62353;SDS011;48391;49.184;2.418;2023-02-15T00:14:19;26.48;;;15.70;;
62353;SDS011;48391;49.184;2.418;2023-02-15T00:16:45;27.52;;;15.95;;
62353;SDS011;48391;49.184;2.418;2023-02-15T00:19:12;27.27;;;15.45;;
62353;SDS011;48391;49.184;2.418;2023-02-15T00:21:38;26.65;;;16.23;;
62353;SDS011;48391;49.184;2.418;2023-02-15T00:24:05;29.42;;;16.15;;
62353;SDS011;48391;49.184;2.418;2023-02-15T00:26:32;27.65;;;15.38;;
62353;SDS011;48391;49.184;2.418;2023-02-15T00:28:58;26.88;;;15.43;;
62353;SDS011;48391;49.184;2.418;2023-02-15T00:31:25;29.98;;;17.10;;
62353;SDS011;48391;49.184;2.418;2023-02-15T00:33:51;25.38;;;15.45;;
62353;SDS011;48391;49.184;2.418;2023-02-15T00:36:17;28.42;;;16.65;;
62353;SDS011;48391;49.184;2.418;2023-02-15T00:38:43;28.33;;;15.80;;
62353;SDS011;48391;49.184;2.418;2023-02-15T00:41:09;28.30;;;16.98;;
62353;SDS011;48391;49.184;2.418;2023-02-15T00:43:35;31.05;;;17.85;;
62353;SDS011;48391;49.184;2.418;2023-02-15T00:46:03;32.83;;;16.65;;
62353;SDS011;48391;49.184;2.418;2023-02-15T00:48:29;29.88;;;17.90;;
62353;SDS011;48391;49.184;2.418;2023-02-15T00:50:56;26.58;;;15.80;;
62353;SDS011;48391;49.184;2.418;2023-02-15T00:53:22;32.33;;;17.00;;
62353;SDS011;48391;49.184;2.418;2023-02-15T00:55:48;30.17;;;15.77;;
62353;SDS011;48391;49.184;2.418;2023-02-15T00:58:15;26.35;;;15.70;;
62353;SDS011;48391;49.184;2.418;2023-02-15T01:00:42;28.98;;;14.88;;
62353;SDS011;48391;49.184;2.418;2023-02-15T01:03:09;28.38;;;16.15;;
62353;SDS011;48391;49.184;2.418;2023-02-15T01:05:35;28.83;;;17.58;;
62353;SDS011;48391;49.184;2.418;2023-02-15T01:08:01;27.33;;;15.45;;
62353;SDS011;48391;49.184;2.418;2023-02-15T01:10:28;25.70;;;15.65;;
62353;SDS011;48391;49.184;2.418;2023-02-15T01:12:54;26.48;;;14.82;;
62353;SDS011;48391;49.184;2.418;2023-02-15T01:15:21;30.38;;;15.90;;
62353;SDS011;48391;49.184;2.418;2023-02-15T01:17:47;28.67;;;16.67;;
62353;SDS011;48391;49.184;2.418;2023-02-15T01:20:22;27.33;;;15.80;;
62353;SDS011;48391;49.184;2.418;2023-02-15T01:25:15;26.88;;;14.60;;
62353;SDS011;48391;49.184;2.418;2023-02-15T01:27:42;27.60;;;15.98;;
62353;SDS011;48391;49.184;2.418;2023-02-15T01:30:08;22.98;;;14.02;;
62353;SDS011;48391;49.184;2.418;2023-02-15T01:32:34;26.67;;;15.18;;
62353;SDS011;48391;49.184;2.418;2023-02-15T01:35:00;26.45;;;15.65;;
62353;SDS011;48391;49.184;2.418;2023-02-15T01:37:26;27.38;;;15.93;;
62353;SDS011;48391;49.184;2.418;2023-02-15T01:39:52;24.48;;;14.63;;
62353;SDS011;48391;49.184;2.418;2023-02-15T01:42:24;24.80;;;13.20;;
62353;SDS011;48391;49.184;2.418;2023-02-15T01:45:01;22.63;;;13.57;;
62353;SDS011;48391;49.184;2.418;2023-02-15T01:50:40;23.98;;;14.75;;
62353;SDS011;48391;49.184;2.418;2023-02-15T01:55:39;24.98;;;14.85;;
62353;SDS011;48391;49.184;2.418;2023-02-15T01:58:06;20.33;;;11.85;;
62353;SDS011;48391;49.184;2.418;2023-02-15T02:00:33;22.38;;;13.32;;
62353;SDS011;48391;49.184;2.418;2023-02-15T02:03:00;23.40;;;13.95;;
62353;SDS011;48391;49.184;2.418;2023-02-15T02:05:27;25.90;;;14.15;;
62353;SDS011;48391;49.184;2.418;2023-02-15T02:10:29;18.00;;;12.63;;
62353;SDS011;48391;49.184;2.418;2023-02-15T02:12:57;23.92;;;12.90;;
62353;SDS011;48391;49.184;2.418;2023-02-15T02:15:33;21.52;;;13.18;;
62353;SDS011;48391;49.184;2.418;2023-02-15T02:31:13;17.52;;;10.90;;
62353;SDS011;48391;49.184;2.418;2023-02-15T02:49:14;15.35;;;8.73;;
62353;SDS011;48391;49.184;2.418;2023-02-15T02:51:41;16.45;;;9.68;;
62353;SDS011;48391;49.184;2.418;2023-02-15T02:54:08;15.65;;;9.30;;
62353;SDS011;48391;49.184;2.418;2023-02-15T02:56:39;16.45;;;9.23;;
62353;SDS011;48391;49.184;2.418;2023-02-15T02:59:15;14.30;;;8.40;;
62353;SDS011;48391;49.184;2.418;2023-02-15T03:01:49;14.43;;;9.18;;
62353;SDS011;48391;49.184;2.418;2023-02-15T03:04:18;16.23;;;9.05;;
62353;SDS011;48391;49.184;2.418;2023-02-15T03:09:14;15.27;;;9.23;;
62353;SDS011;48391;49.184;2.418;2023-02-15T03:11:44;13.15;;;8.23;;
62353;SDS011;48391;49.184;2.418;2023-02-15T03:14:10;12.75;;;7.80;;
62353;SDS011;48391;49.184;2.418;2023-02-15T03:16:39;17.00;;;9.30;;
62353;SDS011;48391;49.184;2.418;2023-02-15T03:19:08;14.98;;;10.13;;
62353;SDS011;48391;49.184;2.418;2023-02-15T03:24:04;15.00;;;9.90;;
62353;SDS011;48391;49.184;2.418;2023-02-15T03:26:32;15.82;;;9.13;;
62353;SDS011;48391;49.184;2.418;2023-02-15T03:29:00;14.48;;;9.02;;
62353;SDS011;48391;49.184;2.418;2023-02-15T03:31:35;15.90;;;9.75;;
62353;SDS011;48391;49.184;2.418;2023-02-15T03:34:04;13.77;;;9.90;;
62353;SDS011;48391;49.184;2.418;2023-02-15T03:36:54;18.48;;;11.43;;
62353;SDS011;48391;49.184;2.418;2023-02-15T03:44:29;17.80;;;10.50;;
62353;SDS011;48391;49.184;2.418;2023-02-15T03:47:02;21.60;;;12.43;;
62353;SDS011;48391;49.184;2.418;2023-02-15T03:49:30;21.92;;;11.00;;
62353;SDS011;48391;49.184;2.418;2023-02-15T03:51:59;19.13;;;11.50;;
62353;SDS011;48391;49.184;2.418;2023-02-15T03:54:29;19.58;;;11.50;;
62353;SDS011;48391;49.184;2.418;2023-02-15T03:59:57;17.58;;;11.00;;
62353;SDS011;48391;49.184;2.418;2023-02-15T04:05:20;19.30;;;11.98;;
62353;SDS011;48391;49.184;2.418;2023-02-15T04:07:46;16.95;;;10.70;;
62353;SDS011;48391;49.184;2.418;2023-02-15T04:10:12;14.77;;;8.98;;
62353;SDS011;48391;49.184;2.418;2023-02-15T04:12:57;18.13;;;10.93;;
62353;SDS011;48391;49.184;2.418;2023-02-15T04:15:23;17.92;;;9.80;;
62353;SDS011;48391;49.184;2.418;2023-02-15T04:18:08;17.10;;;10.80;;
62353;SDS011;48391;49.184;2.418;2023-02-15T04:20:34;20.05;;;11.75;;
62353;SDS011;48391;49.184;2.418;2023-02-15T04:23:18;17.70;;;10.32;;
62353;SDS011;48391;49.184;2.418;2023-02-15T04:26:03;18.15;;;10.25;;
62353;SDS011;48391;49.184;2.418;2023-02-15T04:28:30;19.10;;;12.73;;
62353;SDS011;48391;49.184;2.418;2023-02-15T04:30:56;19.63;;;11.10;;
62353;SDS011;48391;49.184;2.418;2023-02-15T04:33:22;17.38;;;10.70;;
62353;SDS011;48391;49.184;2.418;2023-02-15T04:35:48;20.33;;;12.40;;
62353;SDS011;48391;49.184;2.418;2023-02-15T04:38:14;18.13;;;11.45;;
62353;SDS011;48391;49.184;2.418;2023-02-15T04:40:40;20.52;;;11.57;;
62353;SDS011;48391;49.184;2.418;2023-02-15T04:43:06;17.60;;;10.65;;
62353;SDS011;48391;49.184;2.418;2023-02-15T04:45:32;21.88;;;11.50;;
62353;SDS011;48391;49.184;2.418;2023-02-15T04:47:58;17.45;;;9.82;;
62353;SDS011;48391;49.184;2.418;2023-02-15T04:50:24;19.75;;;11.25;;
62353;SDS011;48391;49.184;2.418;2023-02-15T04:52:50;17.67;;;11.30;;
62353;SDS011;48391;49.184;2.418;2023-02-15T04:55:16;20.38;;;10.43;;
62353;SDS011;48391;49.184;2.418;2023-02-15T04:57:42;17.95;;;9.55;;
62353;SDS011;48391;49.184;2.418;2023-02-15T05:00:08;21.65;;;11.15;;
62353;SDS011;48391;49.184;2.418;2023-02-15T05:02:34;17.77;;;10.10;;
62353;SDS011;48391;49.184;2.418;2023-02-15T05:05:00;19.60;;;10.18;;
62353;SDS011;48391;49.184;2.418;2023-02-15T05:07:26;17.85;;;9.50;;
62353;SDS011;48391;49.184;2.418;2023-02-15T05:09:52;16.70;;;9.77;;
62353;SDS011;48391;49.184;2.418;2023-02-15T05:12:18;17.35;;;10.68;;
62353;SDS011;48391;49.184;2.418;2023-02-15T05:14:44;26.83;;;11.95;;
62353;SDS011;48391;49.184;2.418;2023-02-15T05:17:10;20.65;;;11.10;;
62353;SDS011;48391;49.184;2.418;2023-02-15T05:19:38;21.75;;;11.63;;
62353;SDS011;48391;49.184;2.418;2023-02-15T05:22:04;17.73;;;9.90;;
62353;SDS011;48391;49.184;2.418;2023-02-15T05:24:30;19.55;;;10.45;;
62353;SDS011;48391;49.184;2.418;2023-02-15T05:27:14;22.63;;;9.70;;
62353;SDS011;48391;49.184;2.418;2023-02-15T05:29:59;16.50;;;8.85;;
62353;SDS011;48391;49.184;2.418;2023-02-15T05:32:25;17.58;;;9.13;;
62353;SDS011;48391;49.184;2.418;2023-02-15T05:34:51;16.20;;;9.05;;
62353;SDS011;48391;49.184;2.418;2023-02-15T05:37:17;21.88;;;10.70;;
62353;SDS011;48391;49.184;2.418;2023-02-15T05:39:43;19.75;;;10.80;;
62353;SDS011;48391;49.184;2.418;2023-02-15T05:42:09;18.27;;;9.90;;
62353;SDS011;48391;49.184;2.418;2023-02-15T05:44:36;18.58;;;10.48;;
62353;SDS011;48391;49.184;2.418;2023-02-15T05:47:02;19.17;;;9.60;;
62353;SDS011;48391;49.184;2.418;2023-02-15T05:49:29;19.30;;;10.27;;
62353;SDS011;48391;49.184;2.418;2023-02-15T05:51:55;17.95;;;9.52;;
62353;SDS011;48391;49.184;2.418;2023-02-15T05:54:21;17.45;;;8.27;;
62353;SDS011;48391;49.184;2.418;2023-02-15T05:56:47;17.33;;;8.82;;
62353;SDS011;48391;49.184;2.418;2023-02-15T05:59:13;16.55;;;8.85;;
62353;SDS011;48391;49.184;2.418;2023-02-15T06:01:39;20.05;;;9.52;;
62353;SDS011;48391;49.184;2.418;2023-02-15T06:04:05;17.70;;;10.25;;
62353;SDS011;48391;49.184;2.418;2023-02-15T06:06:31;17.60;;;10.27;;
62353;SDS011;48391;49.184;2.418;2023-02-15T06:08:59;19.77;;;10.68;;
62353;SDS011;48391;49.184;2.418;2023-02-15T06:11:25;19.13;;;11.13;;
62353;SDS011;48391;49.184;2.418;2023-02-15T06:13:51;16.92;;;10.68;;
62353;SDS011;48391;49.184;2.418;2023-02-15T06:16:17;20.75;;;10.55;;
62353;SDS011;48391;49.184;2.418;2023-02-15T06:18:43;23.83;;;11.30;;
62353;SDS011;48391;49.184;2.418;2023-02-15T06:21:09;17.13;;;9.45;;
62353;SDS011;48391;49.184;2.418;2023-02-15T06:23:35;19.85;;;10.13;;
62353;SDS011;48391;49.184;2.418;2023-02-15T06:26:01;17.52;;;10.18;;
62353;SDS011;48391;49.184;2.418;2023-02-15T06:28:27;17.30;;;11.10;;
62353;SDS011;48391;49.184;2.418;2023-02-15T06:30:53;21.65;;;11.32;;
62353;SDS011;48391;49.184;2.418;2023-02-15T06:33:19;19.48;;;10.07;;
62353;SDS011;48391;49.184;2.418;2023-02-15T06:35:45;22.75;;;11.73;;
62353;SDS011;48391;49.184;2.418;2023-02-15T06:38:11;26.15;;;13.05;;
62353;SDS011;48391;49.184;2.418;2023-02-15T06:40:37;21.55;;;11.73;;
62353;SDS011;48391;49.184;2.418;2023-02-15T06:43:03;21.48;;;12.02;;
62353;SDS011;48391;49.184;2.418;2023-02-15T06:45:29;22.92;;;11.57;;
62353;SDS011;48391;49.184;2.418;2023-02-15T06:47:55;23.25;;;11.50;;
62353;SDS011;48391;49.184;2.418;2023-02-15T06:50:21;19.30;;;11.55;;
62353;SDS011;48391;49.184;2.418;2023-02-15T06:52:47;22.92;;;12.43;;
62353;SDS011;48391;49.184;2.418;2023-02-15T06:55:13;25.70;;;13.50;;
62353;SDS011;48391;49.184;2.418;2023-02-15T06:57:40;25.48;;;13.90;;
62353;SDS011;48391;49.184;2.418;2023-02-15T07:00:06;24.05;;;13.73;;
62353;SDS011;48391;49.184;2.418;2023-02-15T07:02:33;25.20;;;13.90;;
62353;SDS011;48391;49.184;2.418;2023-02-15T07:04:59;23.65;;;12.25;;
62353;SDS011;48391;49.184;2.418;2023-02-15T07:07:25;20.30;;;10.25;;
62353;SDS011;48391;49.184;2.418;2023-02-15T07:09:51;25.35;;;12.52;;
62353;SDS011;48391;49.184;2.418;2023-02-15T07:12:17;22.15;;;11.60;;
62353;SDS011;48391;49.184;2.418;2023-02-15T07:15:02;27.05;;;12.85;;
62353;SDS011;48391;49.184;2.418;2023-02-15T07:17:31;19.75;;;12.50;;
62353;SDS011;48391;49.184;2.418;2023-02-15T07:19:57;29.45;;;14.70;;
62353;SDS011;48391;49.184;2.418;2023-02-15T07:22:23;24.23;;;12.75;;
62353;SDS011;48391;49.184;2.418;2023-02-15T07:24:49;21.17;;;11.93;;
62353;SDS011;48391;49.184;2.418;2023-02-15T07:27:19;25.85;;;14.57;;
62353;SDS011;48391;49.184;2.418;2023-02-15T07:32:38;20.95;;;11.65;;
62353;SDS011;48391;49.184;2.418;2023-02-15T07:35:23;21.85;;;12.20;;
62353;SDS011;48391;49.184;2.418;2023-02-15T07:37:49;19.70;;;12.05;;
62353;SDS011;48391;49.184;2.418;2023-02-15T07:40:15;20.45;;;10.93;;
62353;SDS011;48391;49.184;2.418;2023-02-15T07:42:41;19.35;;;11.05;;
62353;SDS011;48391;49.184;2.418;2023-02-15T07:45:07;23.08;;;12.90;;
62353;SDS011;48391;49.184;2.418;2023-02-15T07:47:34;19.38;;;11.90;;
62353;SDS011;48391;49.184;2.418;2023-02-15T07:50:00;21.83;;;11.95;;
62353;SDS011;48391;49.184;2.418;2023-02-15T07:52:26;27.15;;;14.02;;
62353;SDS011;48391;49.184;2.418;2023-02-15T07:54:52;29.45;;;16.92;;
62353;SDS011;48391;49.184;2.418;2023-02-15T07:57:18;29.90;;;17.42;;
62353;SDS011;48391;49.184;2.418;2023-02-15T07:59:44;29.17;;;17.90;;
62353;SDS011;48391;49.184;2.418;2023-02-15T08:02:10;32.55;;;19.73;;
62353;SDS011;48391;49.184;2.418;2023-02-15T08:04:36;29.35;;;17.45;;
62353;SDS011;48391;49.184;2.418;2023-02-15T08:07:03;31.58;;;17.40;;
62353;SDS011;48391;49.184;2.418;2023-02-15T08:09:29;29.02;;;17.95;;
62353;SDS011;48391;49.184;2.418;2023-02-15T08:11:55;26.60;;;15.50;;
62353;SDS011;48391;49.184;2.418;2023-02-15T08:14:21;23.27;;;15.25;;
62353;SDS011;48391;49.184;2.418;2023-02-15T08:16:51;27.90;;;15.70;;
62353;SDS011;48391;49.184;2.418;2023-02-15T08:19:19;22.38;;;12.40;;
62353;SDS011;48391;49.184;2.418;2023-02-15T08:21:49;18.70;;;10.95;;
62353;SDS011;48391;49.184;2.418;2023-02-15T08:24:16;21.27;;;12.27;;
62353;SDS011;48391;49.184;2.418;2023-02-15T08:26:43;20.65;;;11.88;;
62353;SDS011;48391;49.184;2.418;2023-02-15T08:29:15;22.10;;;11.73;;
62353;SDS011;48391;49.184;2.418;2023-02-15T08:31:42;18.55;;;12.02;;
62353;SDS011;48391;49.184;2.418;2023-02-15T08:34:09;22.52;;;12.00;;
62353;SDS011;48391;49.184;2.418;2023-02-15T08:36:36;21.70;;;12.02;;
62353;SDS011;48391;49.184;2.418;2023-02-15T08:39:03;22.30;;;11.55;;
62353;SDS011;48391;49.184;2.418;2023-02-15T08:41:30;21.90;;;12.38;;
62353;SDS011;48391;49.184;2.418;2023-02-15T08:43:58;21.50;;;12.40;;
62353;SDS011;48391;49.184;2.418;2023-02-15T08:46:26;22.60;;;12.32;;
62353;SDS011;48391;49.184;2.418;2023-02-15T08:48:52;22.33;;;13.07;;
62353;SDS011;48391;49.184;2.418;2023-02-15T08:51:22;25.33;;;13.95;;
62353;SDS011;48391;49.184;2.418;2023-02-15T08:53:50;20.60;;;13.65;;
62353;SDS011;48391;49.184;2.418;2023-02-15T08:56:17;24.65;;;13.82;;
62353;SDS011;48391;49.184;2.418;2023-02-15T08:58:43;23.25;;;12.23;;
62353;SDS011;48391;49.184;2.418;2023-02-15T09:01:10;22.13;;;12.85;;
62353;SDS011;48391;49.184;2.418;2023-02-15T09:03:37;22.10;;;12.88;;
62353;SDS011;48391;49.184;2.418;2023-02-15T09:06:03;18.88;;;12.32;;
62353;SDS011;48391;49.184;2.418;2023-02-15T09:08:29;18.05;;;12.05;;
62353;SDS011;48391;49.184;2.418;2023-02-15T09:11:06;20.10;;;11.85;;
62353;SDS011;48391;49.184;2.418;2023-02-15T09:13:32;16.42;;;10.48;;
62353;SDS011;48391;49.184;2.418;2023-02-15T09:16:00;19.75;;;11.40;;
62353;SDS011;48391;49.184;2.418;2023-02-15T09:18:27;19.38;;;12.25;;
62353;SDS011;48391;49.184;2.418;2023-02-15T09:20:53;20.55;;;11.15;;
62353;SDS011;48391;49.184;2.418;2023-02-15T09:23:20;21.17;;;12.57;;
62353;SDS011;48391;49.184;2.418;2023-02-15T09:25:46;24.02;;;11.98;;
62353;SDS011;48391;49.184;2.418;2023-02-15T09:28:12;20.80;;;12.52;;
62353;SDS011;48391;49.184;2.418;2023-02-15T09:30:38;29.08;;;15.95;;
62353;SDS011;48391;49.184;2.418;2023-02-15T09:33:04;37.30;;;22.02;;
62353;SDS011;48391;49.184;2.418;2023-02-15T09:35:30;32.38;;;20.00;;
62353;SDS011;48391;49.184;2.418;2023-02-15T09:37:56;39.58;;;23.23;;
62353;SDS011;48391;49.184;2.418;2023-02-15T09:40:22;41.55;;;22.92;;
62353;SDS011;48391;49.184;2.418;2023-02-15T09:58:45;24.42;;;16.23;;
62353;SDS011;48391;49.184;2.418;2023-02-15T10:06:37;37.08;;;21.60;;
62353;SDS011;48391;49.184;2.418;2023-02-15T10:09:10;30.58;;;17.25;;
62353;SDS011;48391;49.184;2.418;2023-02-15T10:17:00;25.67;;;14.60;;
62353;SDS011;48391;49.184;2.418;2023-02-15T10:25:28;27.95;;;17.60;;
62353;SDS011;48391;49.184;2.418;2023-02-15T10:27:46;32.40;;;18.38;;
62353;SDS011;48391;49.184;2.418;2023-02-15T10:33:01;24.27;;;14.48;;
62353;SDS011;48391;49.184;2.418;2023-02-15T10:38:16;30.23;;;19.20;;
62353;SDS011;48391;49.184;2.418;2023-02-15T10:50:45;32.38;;;20.15;;
62353;SDS011;48391;49.184;2.418;2023-02-15T10:58:19;30.00;;;18.70;;
62353;SDS011;48391;49.184;2.418;2023-02-15T11:05:58;24.88;;;16.65;;
62353;SDS011;48391;49.184;2.418;2023-02-15T11:08:25;30.02;;;19.05;;
62353;SDS011;48391;49.184;2.418;2023-02-15T11:10:56;30.63;;;18.38;;
62353;SDS011;48391;49.184;2.418;2023-02-15T11:13:27;25.88;;;17.13;;
62353;SDS011;48391;49.184;2.418;2023-02-15T11:16:05;34.08;;;20.83;;
62353;SDS011;48391;49.184;2.418;2023-02-15T11:18:54;28.60;;;20.33;;
62353;SDS011;48391;49.184;2.418;2023-02-15T11:21:31;29.30;;;18.85;;
62353;SDS011;48391;49.184;2.418;2023-02-15T11:24:07;43.83;;;25.58;;
62353;SDS011;48391;49.184;2.418;2023-02-15T11:26:46;36.25;;;24.05;;
62353;SDS011;48391;49.184;2.418;2023-02-15T11:29:25;31.35;;;21.02;;
62353;SDS011;48391;49.184;2.418;2023-02-15T11:31:54;28.60;;;17.75;;
62353;SDS011;48391;49.184;2.418;2023-02-15T11:34:31;26.90;;;18.17;;
62353;SDS011;48391;49.184;2.418;2023-02-15T11:37:00;28.83;;;20.55;;
62353;SDS011;48391;49.184;2.418;2023-02-15T11:39:28;23.35;;;17.20;;
62353;SDS011;48391;49.184;2.418;2023-02-15T11:41:59;30.33;;;19.20;;
62353;SDS011;48391;49.184;2.418;2023-02-15T11:44:31;25.80;;;18.70;;
62353;SDS011;48391;49.184;2.418;2023-02-15T11:46:58;28.13;;;18.02;;
62353;SDS011;48391;49.184;2.418;2023-02-15T11:49:33;25.92;;;18.35;;
62353;SDS011;48391;49.184;2.418;2023-02-15T11:52:10;21.25;;;16.17;;
62353;SDS011;48391;49.184;2.418;2023-02-15T11:54:39;24.40;;;18.60;;
62353;SDS011;48391;49.184;2.418;2023-02-15T11:59:51;30.50;;;20.23;;
62353;SDS011;48391;49.184;2.418;2023-02-15T12:02:21;31.85;;;22.15;;
62353;SDS011;48391;49.184;2.418;2023-02-15T12:04:52;31.75;;;22.10;;
62353;SDS011;48391;49.184;2.418;2023-02-15T12:12:30;28.08;;;20.52;;
62353;SDS011;48391;49.184;2.418;2023-02-15T12:14:57;28.13;;;20.85;;
62353;SDS011;48391;49.184;2.418;2023-02-15T12:17:24;21.63;;;16.13;;
62353;SDS011;48391;49.184;2.418;2023-02-15T12:19:52;24.10;;;16.58;;
62353;SDS011;48391;49.184;2.418;2023-02-15T12:22:24;24.33;;;16.00;;
62353;SDS011;48391;49.184;2.418;2023-02-15T12:24:52;21.23;;;15.38;;
62353;SDS011;48391;49.184;2.418;2023-02-15T12:27:19;26.20;;;17.63;;
62353;SDS011;48391;49.184;2.418;2023-02-15T12:32:36;19.35;;;15.38;;
62353;SDS011;48391;49.184;2.418;2023-02-15T12:35:16;26.13;;;17.73;;
62353;SDS011;48391;49.184;2.418;2023-02-15T12:40:26;21.60;;;16.00;;
62353;SDS011;48391;49.184;2.418;2023-02-15T12:42:53;17.30;;;14.18;;
62353;SDS011;48391;49.184;2.418;2023-02-15T12:45:32;23.35;;;16.33;;
62353;SDS011;48391;49.184;2.418;2023-02-15T12:50:34;25.38;;;16.77;;
62353;SDS011;48391;49.184;2.418;2023-02-15T12:55:38;27.10;;;20.08;;
62353;SDS011;48391;49.184;2.418;2023-02-15T12:58:25;27.38;;;19.58;;
62353;SDS011;48391;49.184;2.418;2023-02-15T13:01:14;29.45;;;19.27;;
62353;SDS011;48391;49.184;2.418;2023-02-15T13:03:55;25.58;;;18.20;;
62353;SDS011;48391;49.184;2.418;2023-02-15T13:06:21;25.08;;;17.75;;
62353;SDS011;48391;49.184;2.418;2023-02-15T13:08:49;25.38;;;17.20;;
62353;SDS011;48391;49.184;2.418;2023-02-15T13:11:19;22.50;;;16.13;;
62353;SDS011;48391;49.184;2.418;2023-02-15T13:16:12;24.17;;;17.27;;
62353;SDS011;48391;49.184;2.418;2023-02-15T13:18:42;24.85;;;17.85;;
62353;SDS011;48391;49.184;2.418;2023-02-15T13:21:12;19.00;;;13.77;;
62353;SDS011;48391;49.184;2.418;2023-02-15T13:23:41;16.52;;;12.57;;
62353;SDS011;48391;49.184;2.418;2023-02-15T13:26:11;19.88;;;14.18;;
62353;SDS011;48391;49.184;2.418;2023-02-15T13:28:46;15.38;;;11.90;;
62353;SDS011;48391;49.184;2.418;2023-02-15T13:31:17;21.92;;;15.52;;
62353;SDS011;48391;49.184;2.418;2023-02-15T13:33:46;22.83;;;15.77;;
62353;SDS011;48391;49.184;2.418;2023-02-15T13:41:29;16.98;;;14.55;;
62353;SDS011;48391;49.184;2.418;2023-02-15T13:47:12;14.77;;;11.45;;
62353;SDS011;48391;49.184;2.418;2023-02-15T13:54:28;17.70;;;12.25;;
62353;SDS011;48391;49.184;2.418;2023-02-15T17:16:52;28.42;;;20.52;;
62353;SDS011;48391;49.184;2.418;2023-02-15T17:19:23;22.45;;;17.25;;
62353;SDS011;48391;49.184;2.418;2023-02-15T17:21:52;25.10;;;17.10;;
62353;SDS011;48391;49.184;2.418;2023-02-15T17:24:35;21.83;;;16.45;;
62353;SDS011;48391;49.184;2.418;2023-02-15T17:27:03;24.27;;;18.25;;
62353;SDS011;48391;49.184;2.418;2023-02-15T17:29:37;29.17;;;19.63;;
62353;SDS011;48391;49.184;2.418;2023-02-15T17:32:04;28.52;;;19.83;;
62353;SDS011;48391;49.184;2.418;2023-02-15T17:40:00;20.65;;;15.57;;
62353;SDS011;48391;49.184;2.418;2023-02-15T17:42:26;29.08;;;19.63;;
62353;SDS011;48391;49.184;2.418;2023-02-15T17:44:53;25.75;;;18.27;;
62353;SDS011;48391;49.184;2.418;2023-02-15T17:47:20;29.65;;;20.60;;
62353;SDS011;48391;49.184;2.418;2023-02-15T17:49:47;25.75;;;18.10;;
62353;SDS011;48391;49.184;2.418;2023-02-15T17:52:14;26.33;;;17.23;;
62353;SDS011;48391;49.184;2.418;2023-02-15T17:54:41;37.38;;;25.02;;
62353;SDS011;48391;49.184;2.418;2023-02-15T17:57:27;34.15;;;22.52;;
62353;SDS011;48391;49.184;2.418;2023-02-15T17:59:53;30.23;;;19.42;;
62353;SDS011;48391;49.184;2.418;2023-02-15T18:02:38;22.30;;;17.10;;
62353;SDS011;48391;49.184;2.418;2023-02-15T18:05:23;21.48;;;15.63;;
62353;SDS011;48391;49.184;2.418;2023-02-15T18:08:15;26.88;;;18.70;;
62353;SDS011;48391;49.184;2.418;2023-02-15T18:11:00;22.38;;;14.70;;
62353;SDS011;48391;49.184;2.418;2023-02-15T18:13:45;29.45;;;20.00;;
62353;SDS011;48391;49.184;2.418;2023-02-15T18:16:12;24.75;;;18.23;;
62353;SDS011;48391;49.184;2.418;2023-02-15T18:18:38;24.92;;;18.75;;
62353;SDS011;48391;49.184;2.418;2023-02-15T18:21:04;25.58;;;18.17;;
62353;SDS011;48391;49.184;2.418;2023-02-15T18:23:34;27.38;;;16.58;;
62353;SDS011;48391;49.184;2.418;2023-02-15T18:26:00;20.23;;;13.52;;
62353;SDS011;48391;49.184;2.418;2023-02-15T18:28:26;22.05;;;14.95;;
62353;SDS011;48391;49.184;2.418;2023-02-15T18:30:52;22.80;;;17.08;;
62353;SDS011;48391;49.184;2.418;2023-02-15T18:33:38;23.08;;;16.27;;
62353;SDS011;48391;49.184;2.418;2023-02-15T18:36:05;19.67;;;14.70;;
62353;SDS011;48391;49.184;2.418;2023-02-15T18:38:32;25.55;;;17.50;;
62353;SDS011;48391;49.184;2.418;2023-02-15T18:40:58;24.73;;;18.48;;
62353;SDS011;48391;49.184;2.418;2023-02-15T18:43:25;26.30;;;18.15;;
62353;SDS011;48391;49.184;2.418;2023-02-15T18:45:51;23.30;;;16.60;;
62353;SDS011;48391;49.184;2.418;2023-02-15T18:48:17;31.15;;;21.45;;
62353;SDS011;48391;49.184;2.418;2023-02-15T18:50:43;29.17;;;19.20;;
62353;SDS011;48391;49.184;2.418;2023-02-15T18:53:14;28.65;;;19.58;;
62353;SDS011;48391;49.184;2.418;2023-02-15T18:55:40;26.25;;;17.70;;
62353;SDS011;48391;49.184;2.418;2023-02-15T18:58:08;22.38;;;16.52;;
62353;SDS011;48391;49.184;2.418;2023-02-15T19:00:39;24.75;;;17.90;;
62353;SDS011;48391;49.184;2.418;2023-02-15T19:03:07;32.67;;;18.75;;
62353;SDS011;48391;49.184;2.418;2023-02-15T19:05:34;27.02;;;19.08;;
62353;SDS011;48391;49.184;2.418;2023-02-15T19:08:01;30.38;;;18.23;;
62353;SDS011;48391;49.184;2.418;2023-02-15T19:10:28;25.25;;;18.45;;
62353;SDS011;48391;49.184;2.418;2023-02-15T19:12:55;31.65;;;20.50;;
62353;SDS011;48391;49.184;2.418;2023-02-15T19:17:47;26.67;;;18.73;;
62353;SDS011;48391;49.184;2.418;2023-02-15T19:20:14;29.17;;;19.10;;
62353;SDS011;48391;49.184;2.418;2023-02-15T19:22:40;27.40;;;20.75;;
62353;SDS011;48391;49.184;2.418;2023-02-15T19:25:06;30.27;;;19.20;;
62353;SDS011;48391;49.184;2.418;2023-02-15T19:27:33;27.55;;;19.10;;
62353;SDS011;48391;49.184;2.418;2023-02-15T19:30:00;27.63;;;18.50;;
62353;SDS011;48391;49.184;2.418;2023-02-15T19:32:27;30.33;;;17.30;;
62353;SDS011;48391;49.184;2.418;2023-02-15T19:34:54;26.02;;;17.25;;
62353;SDS011;48391;49.184;2.418;2023-02-15T19:40:23;30.17;;;18.48;;
62353;SDS011;48391;49.184;2.418;2023-02-15T19:42:50;27.63;;;17.00;;
62353;SDS011;48391;49.184;2.418;2023-02-15T19:45:20;27.25;;;15.82;;
62353;SDS011;48391;49.184;2.418;2023-02-15T19:47:46;26.73;;;17.38;;
62353;SDS011;48391;49.184;2.418;2023-02-15T19:50:13;25.85;;;16.45;;
62353;SDS011;48391;49.184;2.418;2023-02-15T19:52:39;23.33;;;14.60;;
62353;SDS011;48391;49.184;2.418;2023-02-15T19:55:06;28.65;;;16.95;;
62353;SDS011;48391;49.184;2.418;2023-02-15T19:57:34;29.17;;;17.77;;
62353;SDS011;48391;49.184;2.418;2023-02-15T20:00:00;29.20;;;18.52;;
62353;SDS011;48391;49.184;2.418;2023-02-15T20:02:28;34.72;;;19.08;;
62353;SDS011;48391;49.184;2.418;2023-02-15T20:04:54;35.38;;;21.63;;
62353;SDS011;48391;49.184;2.418;2023-02-15T20:09:46;40.15;;;25.05;;
62353;SDS011;48391;49.184;2.418;2023-02-15T20:12:30;36.15;;;23.65;;
62353;SDS011;48391;49.184;2.418;2023-02-15T20:14:56;41.10;;;24.08;;
62353;SDS011;48391;49.184;2.418;2023-02-15T20:17:22;41.75;;;24.27;;
62353;SDS011;48391;49.184;2.418;2023-02-15T20:19:48;38.83;;;23.73;;
62353;SDS011;48391;49.184;2.418;2023-02-15T20:22:16;48.03;;;25.90;;
62353;SDS011;48391;49.184;2.418;2023-02-15T20:24:46;41.75;;;25.23;;
62353;SDS011;48391;49.184;2.418;2023-02-15T20:27:15;40.30;;;23.50;;
62353;SDS011;48391;49.184;2.418;2023-02-15T20:29:42;41.28;;;24.90;;
62353;SDS011;48391;49.184;2.418;2023-02-15T20:32:09;45.40;;;26.40;;
62353;SDS011;48391;49.184;2.418;2023-02-15T20:34:35;51.45;;;28.05;;
62353;SDS011;48391;49.184;2.418;2023-02-15T20:37:02;56.90;;;31.17;;